»·PEaware :: N214PP L88-KSBP

N214PP :: L88-KSBP

FLIGHT INFORMATION

Flight Status: Arrived
Operator: Privately registered:
United States
More flights under this callsign
Pilot: Frank P. (21034)
Aircraft: CESSNA 172 SKYHAWK
(C172)
More flights by this aircraft type
Origin: L88 New Cuyama
United States
Destination: KSBP San Luis Co Regl
United States
More flights between these airports :: More routes between these airports
Route: L88 KSBP
File this flight plan on PilotEdge
Remarks: Cat 2
Altitude:
(Current/Filed)
6,500ft
Speed:
(Current/Filed)
110kts
Departed: 30-Dec-18 04:33 PM
Arrived: 30-Dec-18 05:32 PM
Distance/Time
Traveled:
50nm/0:59
Distance/Time
To Go:
Arrived

Flight Plot

Page will automatically refresh every two minutes.


Map Options




Map Legend


Flown Route
Filed Route
Departure Airport
Arrival Airport
Navaid (VOR, NDB)
Fix

Horizontal Profiles

Position Reports

Time Latitude Longitude Heading Altitude Ground
Speed
30-Dec-18 16:17 34.942853 -119.690285 204 2156ft 0kts
30-Dec-18 16:18 34.942853 -119.690285 204 2156ft 0kts
30-Dec-18 16:19 34.942853 -119.690285 204 2156ft 0kts
30-Dec-18 16:20 34.942071 -119.690807 116 2157ft 21kts
30-Dec-18 16:21 34.939998 -119.685765 119 2176ft 31kts
30-Dec-18 16:22 34.937649 -119.680027 104 2200ft 29kts
30-Dec-18 16:24 34.942854 -119.690285 204 2156ft 0kts
30-Dec-18 16:25 34.942853 -119.690285 204 2156ft 0kts
30-Dec-18 16:26 34.942738 -119.690845 290 2156ft 11kts
30-Dec-18 16:27 34.941553 -119.689521 109 2160ft 21kts
30-Dec-18 16:28 34.939512 -119.684614 121 2181ft 23kts
30-Dec-18 16:29 34.938329 -119.681671 116 2192ft 14kts
30-Dec-18 16:30 34.937740 -119.680332 115 2199ft 6kts
30-Dec-18 16:31 34.937917 -119.680689 295 2197ft 0kts
30-Dec-18 16:32 34.939316 -119.684090 300 2184ft 71kts
30-Dec-18 16:33 34.946462 -119.698661 299 2703ft 83kts
30-Dec-18 16:34 34.953996 -119.713525 303 3234ft 87kts
30-Dec-18 16:35 34.962004 -119.728345 301 3788ft 87kts
30-Dec-18 16:36 34.967397 -119.741927 290 4411ft 74kts
30-Dec-18 16:37 34.971226 -119.756304 285 4782ft 90kts
30-Dec-18 16:38 34.976232 -119.772886 290 5326ft 85kts
30-Dec-18 16:39 34.980926 -119.789199 287 5833ft 84kts
30-Dec-18 16:40 34.986802 -119.806770 291 6139ft 101kts
30-Dec-18 16:41 34.992788 -119.825899 292 6334ft 103kts
30-Dec-18 16:42 34.998883 -119.844943 290 6337ft 98kts
30-Dec-18 16:43 35.004373 -119.862909 290 6337ft 96kts
30-Dec-18 16:44 35.009402 -119.879276 290 6337ft 95kts
30-Dec-18 16:45 35.014569 -119.896261 290 6337ft 100kts
30-Dec-18 16:46 35.020258 -119.914879 290 6337ft 102kts
30-Dec-18 16:47 35.026148 -119.934172 290 6337ft 103kts
30-Dec-18 16:48 35.033285 -119.957592 290 6337ft 104kts
30-Dec-18 16:49 35.039023 -119.976463 289 6337ft 104kts
30-Dec-18 16:50 35.044810 -119.995505 289 6337ft 104kts
30-Dec-18 16:51 35.050526 -120.014384 289 6337ft 111kts
30-Dec-18 16:52 35.057602 -120.037737 289 6337ft 113kts
30-Dec-18 16:53 35.063699 -120.057943 290 6337ft 114kts
30-Dec-18 16:54 35.069776 -120.078105 289 6337ft 114kts
30-Dec-18 16:55 35.075969 -120.098646 289 6337ft 114kts
30-Dec-18 16:56 35.082094 -120.119016 289 6337ft 114kts
30-Dec-18 16:57 35.088028 -120.138787 289 6337ft 114kts
30-Dec-18 16:58 35.094459 -120.160221 289 6337ft 114kts
30-Dec-18 16:59 35.100847 -120.181585 289 6337ft 114kts
30-Dec-18 17:00 35.106336 -120.199869 289 6337ft 114kts
30-Dec-18 17:01 35.112036 -120.219017 290 6337ft 114kts
30-Dec-18 17:02 35.117767 -120.238158 290 6337ft 114kts
30-Dec-18 17:03 35.123798 -120.258466 289 6337ft 114kts
30-Dec-18 17:04 35.129482 -120.277658 289 6337ft 114kts
30-Dec-18 17:05 35.135329 -120.297256 290 6337ft 114kts
30-Dec-18 17:06 35.142076 -120.320095 289 6337ft 114kts
30-Dec-18 17:07 35.148115 -120.340542 289 6337ft 114kts
30-Dec-18 17:08 35.153776 -120.359686 290 6337ft 114kts
30-Dec-18 17:09 35.159440 -120.378902 289 6288ft 97kts
30-Dec-18 17:10 35.164082 -120.394603 288 6176ft 86kts
30-Dec-18 17:11 35.168828 -120.409909 292 5841ft 85kts
30-Dec-18 17:12 35.172421 -120.426602 278 5497ft 78kts
30-Dec-18 17:13 35.174442 -120.440806 279 5077ft 78kts
30-Dec-18 17:14 35.176669 -120.454828 279 4688ft 76kts
30-Dec-18 17:15 35.179552 -120.469594 283 4268ft 74kts
30-Dec-18 17:16 35.181093 -120.482854 278 3925ft 72kts
30-Dec-18 17:17 35.182900 -120.494983 277 3608ft 72kts
30-Dec-18 17:18 35.185355 -120.506593 283 3313ft 71kts
30-Dec-18 17:19 35.188040 -120.519842 282 2973ft 71kts
30-Dec-18 17:20 35.191032 -120.533236 288 2631ft 71kts
30-Dec-18 17:21 35.194937 -120.544864 291 2341ft 69kts
30-Dec-18 17:22 35.198243 -120.555079 290 2125ft 69kts
30-Dec-18 17:23 35.201399 -120.565223 290 1927ft 69kts
30-Dec-18 17:24 35.204806 -120.575901 292 1718ft 69kts
30-Dec-18 17:25 35.208420 -120.586617 291 1511ft 69kts
30-Dec-18 17:26 35.211943 -120.595726 297 1316ft 69kts
30-Dec-18 17:27 35.216090 -120.604933 300 1087ft 70kts
30-Dec-18 17:28 35.220527 -120.613073 305 919ft 56kts
30-Dec-18 17:29 35.224521 -120.619941 306 685ft 55kts
30-Dec-18 17:30 35.228770 -120.626891 305 422ft 54kts
30-Dec-18 17:31 35.233425 -120.633969 298 209ft 36kts
30-Dec-18 17:32 35.235085 -120.636643 357 204ft 3kts
30-Dec-18 17:33 35.235254 -120.636376 79 205ft 9kts
30-Dec-18 17:34 35.235294 -120.636081 87 206ft 0kts
30-Dec-18 17:35 35.235602 -120.635230 351 210ft 0kts
30-Dec-18 17:36 35.235602 -120.635229 352 210ft 0kts
30-Dec-18 17:37 35.235419 -120.635607 290 208ft 11kts
30-Dec-18 17:38 35.236694 -120.636109 101 206ft 14kts
30-Dec-18 17:39 35.236377 -120.635905 190 207ft 0kts
30-Dec-18 17:40 35.236377 -120.635905 190 207ft 0kts
30-Dec-18 17:41 35.236377 -120.635905 190 207ft 0kts
30-Dec-18 17:42 35.236377 -120.635905 190 207ft 0kts

Navigation Log

Ident Type
Flight plan parsing failed, navigation log unavailable